Bremen, Ohio
Current Conditions -  °F | °C
As of 3:53 AM on Saturday 25 Oct 2014 (Local Time) from KLHQ Reporting Station
Clear Clear  
Wind Chill: 36°   Ceiling: Unl
Heat Index: 39°   Visibility: 10mi
Dew Point: 36°   Wind: 5mph
Humidity: 89%   Direction: 140°SE
Pressure: 30"   Gusts: NA
Location:  39.7°N, 82.43°W
Report Text: KLHQ 250753Z AUTO 14004KT 10SM CLR 04/02 A3000 RMK AO2 SLP161 T00390022
Loading
Personal Weather Stations






























Interactive Weather Map
Tropical Storm Tracking
New forecast layout! Learn more

10-Day Weather Forecast

Advertisements
Track Severe Weather on mobile